Usman', Russia
Current Conditions -  °F | °C
As of 5:30 PM on Saturday 22 Nov 2014 (Local Time) from UUOO Reporting Station
Overcast Overcast  
Wind Chill: 21°   Ceiling: 400
Heat Index: 21°   Visibility: 4mi
Dew Point: 21°   Wind: 2mph
Humidity: 100%   Direction: NA
Pressure: 30.42"   Gusts: NA
Location:  52.04°N, 39.42°E
Report Text: UUOO 221430Z VRB01MPS 6000 OVC004 M06/M06 Q1030 NOSIG RMK30190060
Loading
Personal Weather Stations






























Interactive Weather Map New forecast layout! Learn more

10-Day Weather Forecast

Advertisements
Track Severe Weather on mobile